.
WxDataArchive / Data Records for 2006-05-22
2006-05-21 May 2006 2006-05-23

Data Records for Monday, 22 May 2006

Time	Temp	Chill	HIndex	Humid	Dewpt	 Wind 	HiWind	WindDir	Rain 	Barom 
-----	----	-----	------	-----	-----	------	------	-------	-----	----- 
00:00	42.9	42.9	42.9	65	32.0	0	0	---	0.00	30.056 
00:05	42.9	42.9	42.9	65	32.0	0	1	315	0.00	30.056 
00:10	42.8	42.8	42.8	65	31.9	0	0	---	0.00	30.056 
00:15	42.6	42.6	42.6	66	32.0	0	0	---	0.00	30.057 
00:20	42.5	42.5	42.5	67	32.3	0	0	---	0.00	30.057 
00:25	42.2	42.2	42.2	67	32.0	0	0	---	0.00	30.057 
00:30	42.2	42.2	42.2	67	32.0	0	0	---	0.00	30.062 
00:35	42.1	42.1	42.1	68	32.3	0	0	---	0.00	30.062 
00:40	42.1	42.1	42.1	68	32.3	0	0	---	0.00	30.062 
00:45	41.9	41.9	41.9	69	32.5	0	0	---	0.00	30.062 
00:50	41.6	41.6	41.6	69	32.2	0	0	---	0.00	30.062 
00:55	41.3	41.3	41.3	70	32.3	0	0	---	0.00	30.062 
01:00	41.2	41.2	41.2	70	32.2	0	0	---	0.00	30.063 
01:05	41.2	41.2	41.2	71	32.5	0	0	---	0.00	30.063 
01:10	41.1	41.1	41.1	72	32.8	0	0	---	0.00	30.063 
01:15	40.8	40.8	40.8	71	32.1	0	0	---	0.00	30.069 
01:20	40.5	40.5	40.5	72	32.2	0	0	---	0.00	30.069 
01:25	40.2	40.2	40.2	74	32.6	0	0	---	0.00	30.069 
01:30	39.9	39.9	39.9	76	33.0	0	0	---	0.00	30.066 
01:35	39.5	39.5	39.5	77	32.9	0	0	---	0.00	30.066 
01:40	39.3	39.3	39.3	77	32.7	0	0	---	0.00	30.066 
01:45	39.2	39.2	39.2	77	32.6	0	0	---	0.00	30.065 
01:50	39.1	39.1	39.1	77	32.5	0	0	---	0.00	30.065 
01:55	38.9	38.9	38.9	77	32.3	0	0	---	0.00	30.065 
02:00	38.9	38.9	38.9	77	32.3	0	0	---	0.00	30.063 
02:05	38.9	38.9	38.9	78	32.6	0	0	---	0.00	30.063 
02:10	38.8	38.8	38.8	78	32.5	0	0	---	0.00	30.063 
02:15	38.8	38.8	38.8	79	32.9	0	0	---	0.00	30.065 
02:20	38.6	38.6	38.6	78	32.3	0	0	---	0.00	30.065 
02:25	38.3	38.3	38.3	78	32.1	0	0	---	0.00	30.065 
02:30	38.2	38.2	38.2	79	32.3	0	0	---	0.00	30.067 
02:35	37.9	37.9	37.9	80	32.3	0	0	---	0.00	30.067 
02:40	37.8	37.8	37.8	80	32.2	0	0	---	0.00	30.067 
02:45	37.6	37.6	37.6	81	32.3	0	0	---	0.00	30.069 
02:50	37.3	37.3	37.3	82	32.3	0	0	---	0.00	30.069 
02:55	37.2	37.2	37.2	83	32.5	0	0	---	0.00	30.069 
03:00	37.0	37.0	37.0	83	32.3	0	0	---	0.00	30.065 
03:05	36.9	36.9	36.9	83	32.2	0	0	---	0.00	30.065 
03:10	36.6	36.6	36.6	83	31.9	0	0	---	0.00	30.065 
03:15	36.5	36.5	36.5	84	32.1	0	0	---	0.00	30.066 
03:20	36.3	36.3	36.3	84	31.9	0	0	---	0.00	30.066 
03:25	36.2	36.2	36.2	84	31.8	0	0	---	0.00	30.066 
03:30	36.0	36.0	36.0	85	31.9	0	0	---	0.00	30.067 
03:35	35.9	35.9	35.9	85	31.8	0	0	---	0.00	30.067 
03:40	35.8	35.8	35.8	86	32.0	0	0	---	0.00	30.067 
03:45	35.8	35.8	35.8	86	32.0	0	0	---	0.00	30.070 
03:50	35.6	35.6	35.6	87	32.1	0	0	---	0.00	30.070 
03:55	35.6	35.6	35.6	87	32.1	0	0	---	0.00	30.070 
04:00	35.5	35.5	35.5	87	32.0	0	0	---	0.00	30.069 
04:05	35.5	35.5	35.5	87	32.0	0	0	---	0.00	30.069 
04:10	35.3	35.3	35.3	87	31.8	0	0	---	0.00	30.069 
04:15	35.2	35.2	35.2	87	31.7	0	0	---	0.00	30.077 
04:20	35.0	35.0	35.0	88	31.8	0	0	---	0.00	30.077 
04:25	35.0	35.0	35.0	88	31.8	0	0	---	0.00	30.077 
04:30	35.0	35.0	35.0	89	32.1	0	0	---	0.00	30.082 
04:35	35.2	35.2	35.2	89	32.3	0	0	---	0.00	30.082 
04:40	35.2	35.2	35.2	90	32.6	0	0	---	0.00	30.082 
04:45	35.3	35.3	35.3	90	32.7	0	0	---	0.00	30.087 
04:50	35.3	35.3	35.3	90	32.7	0	0	---	0.00	30.087 
04:55	35.5	35.5	35.5	89	32.6	0	0	---	0.00	30.087 
05:00	35.3	35.3	35.3	89	32.4	0	0	---	0.00	30.094 
05:05	35.3	35.3	35.3	89	32.4	0	0	---	0.00	30.094 
05:10	35.3	35.3	35.3	89	32.4	0	0	---	0.00	30.094 
05:15	35.3	35.3	35.3	90	32.7	0	0	---	0.00	30.100 
05:20	35.5	35.5	35.5	90	32.9	0	0	---	0.00	30.100 
05:25	35.5	35.5	35.5	90	32.9	0	0	---	0.00	30.100 
05:30	35.5	35.5	35.5	90	32.9	0	0	---	0.00	30.111 
05:35	35.5	35.5	35.5	90	32.9	0	1	315	0.00	30.111 
05:40	35.6	35.6	35.6	90	33.0	0	0	---	0.00	30.111 
05:45	35.8	35.8	35.8	90	33.2	0	0	---	0.00	30.115 
05:50	35.9	35.9	35.9	90	33.3	0	0	---	0.00	30.115 
05:55	35.9	35.9	35.9	89	33.0	0	0	---	0.00	30.115 
06:00	35.8	35.8	35.8	89	32.9	0	0	---	0.00	30.119 
06:05	35.6	35.6	35.6	89	32.7	0	0	---	0.00	30.119 
06:10	35.5	35.5	35.5	89	32.6	0	0	---	0.00	30.119 
06:15	35.3	35.3	35.3	89	32.4	0	0	---	0.00	30.131 
06:20	35.2	35.2	35.2	89	32.3	0	0	---	0.00	30.131 
06:25	35.2	35.2	35.2	89	32.3	0	0	---	0.00	30.131 
06:30	35.2	35.2	35.2	89	32.3	0	0	---	0.00	30.132 
06:35	35.0	35.0	35.0	89	32.1	0	0	---	0.00	30.132 
06:40	35.0	35.0	35.0	89	32.1	0	0	---	0.00	30.132 
06:45	35.3	35.3	35.3	90	32.7	0	1	315	0.00	30.133 
06:50	35.9	35.9	35.9	91	33.5	0	0	---	0.00	30.133 
06:55	36.5	36.5	36.5	90	33.9	0	0	---	0.00	30.133 
07:00	37.0	37.0	37.0	89	34.1	0	1	315	0.00	30.135 
07:05	37.5	37.5	37.5	87	34.0	0	1	315	0.00	30.135 
07:10	38.0	38.0	38.0	86	34.2	0	1	315	0.00	30.135 
07:15	38.6	38.6	38.6	84	34.2	0	1	315	0.00	30.134 
07:20	39.2	39.2	39.2	82	34.2	0	1	315	0.00	30.134 
07:25	39.8	39.8	39.8	81	34.5	0	1	315	0.00	30.134 
07:30	40.3	40.3	40.3	79	34.3	0	1	315	0.00	30.141 
07:35	40.9	40.9	40.9	77	34.3	0	2	315	0.00	30.141 
07:40	41.5	41.5	41.5	76	34.5	0	2	315	0.00	30.141 
07:45	41.9	41.9	41.9	74	34.2	0	3	315	0.00	30.142 
07:50	42.5	42.5	42.5	73	34.5	0	2	270	0.00	30.142 
07:55	42.9	42.9	42.9	72	34.5	0	2	270	0.00	30.142 
08:00	43.3	43.3	43.3	70	34.2	1	3	315	0.00	30.144 
08:05	43.9	43.9	43.9	71	35.1	0	1	315	0.00	30.144 
08:10	44.5	44.5	44.5	70	35.3	0	2	292	0.00	30.144 
08:15	44.9	44.9	44.9	68	35.0	0	3	292	0.00	30.144 
08:20	45.5	45.5	45.5	66	34.8	0	2	270	0.00	30.144 
08:25	46.1	46.1	46.1	64	34.6	0	3	270	0.00	30.144 
08:30	46.5	46.5	46.5	63	34.6	1	2	270	0.00	30.156 
08:35	47.3	47.3	47.3	63	35.4	0	2	270	0.00	30.156 
08:40	47.7	47.7	47.7	61	34.9	1	2	292	0.00	30.156 
08:45	48.3	48.3	48.3	60	35.1	1	2	292	0.00	30.157 
08:50	48.6	48.6	48.6	58	34.5	0	2	292	0.00	30.157 
08:55	48.9	48.9	48.9	60	35.6	0	3	45	0.00	30.157 
09:00	49.5	49.5	49.5	56	34.5	1	3	22	0.00	30.156 
09:05	49.6	49.6	49.6	54	33.6	1	5	292	0.00	30.156 
09:10	49.8	49.8	49.8	54	33.8	1	3	45	0.00	30.156 
09:15	50.2	50.2	50.2	52	33.3	1	2	338	0.00	30.162 
09:20	50.5	50.5	50.5	51	33.1	1	3	338	0.00	30.162 
09:25	51.0	51.0	51.0	53	34.5	1	3	270	0.00	30.162 
09:30	51.4	51.4	51.4	51	33.9	1	7	270	0.00	30.160 
09:35	52.0	52.0	52.0	46	31.9	1	4	0	0.00	30.160 
09:40	52.0	52.0	52.0	48	32.9	1	4	22	0.00	30.160 
09:45	52.3	52.3	52.3	50	34.2	1	4	270	0.00	30.165 
09:50	52.6	52.6	52.6	41	29.6	1	6	270	0.00	30.165 
09:55	52.9	52.9	52.9	46	32.7	1	3	45	0.00	30.165 
10:00	52.9	52.9	52.9	41	29.8	1	5	292	0.00	30.163 
10:05	53.3	53.3	53.3	42	30.8	1	3	292	0.00	30.163 
10:10	53.8	53.8	53.8	43	31.8	1	3	315	0.00	30.163 
10:15	54.8	54.8	54.8	44	33.3	1	2	0	0.00	30.158 
10:20	54.8	54.8	54.8	42	32.2	1	4	0	0.00	30.158 
10:25	55.0	55.0	55.0	43	32.9	1	3	270	0.00	30.158 
10:30	55.1	55.1	55.1	37	29.3	2	9	315	0.00	30.156 
10:35	55.1	55.1	55.1	40	31.2	1	4	292	0.00	30.156 
10:40	55.3	55.3	55.3	38	30.1	1	3	0	0.00	30.156 
10:45	56.0	56.0	56.0	39	31.4	1	3	68	0.00	30.156 
10:50	56.0	56.0	56.0	39	31.4	2	4	315	0.00	30.156 
10:55	56.2	56.2	56.2	39	31.6	1	4	292	0.00	30.156 
11:00	56.3	56.3	56.3	38	31.0	1	4	315	0.00	30.158 
11:05	56.0	56.0	56.0	35	28.7	2	3	315	0.00	30.158 
11:10	56.2	56.2	56.2	38	30.9	1	3	270	0.00	30.158 
11:15	56.6	56.6	56.6	37	30.6	2	5	45	0.00	30.159 
11:20	56.7	56.7	56.7	40	32.7	2	5	90	0.00	30.159 
11:25	56.6	56.6	56.6	37	30.6	2	5	0	0.00	30.159 
11:30	56.7	56.7	56.7	39	32.0	1	3	315	0.00	30.164 
11:35	57.0	57.0	57.0	41	33.5	1	3	315	0.00	30.164 
11:40	57.5	57.5	57.5	35	30.1	1	5	45	0.00	30.164 
11:45	57.8	57.8	57.8	34	29.6	1	4	45	0.00	30.162 
11:50	57.8	57.8	57.8	36	31.0	1	5	45	0.00	30.162 
11:55	57.5	57.5	57.5	38	32.1	2	5	22	0.00	30.162 
12:00	58.1	58.1	58.1	37	32.0	2	6	270	0.00	30.166 
12:05	58.6	58.6	58.6	39	33.7	1	3	315	0.00	30.166 
12:10	58.6	58.6	58.6	37	32.4	2	5	270	0.00	30.166 
12:15	59.2	59.2	59.2	40	34.9	1	3	292	0.00	30.169 
12:20	59.3	59.3	59.3	38	33.7	2	4	270	0.00	30.169 
12:25	59.0	59.0	59.0	37	32.8	1	3	338	0.00	30.169 
12:30	59.5	59.5	59.5	39	34.5	1	6	0	0.00	30.163 
12:35	59.0	59.0	59.0	36	32.1	2	10	292	0.00	30.163 
12:40	58.7	58.7	58.7	38	33.2	2	7	315	0.00	30.163 
12:45	58.3	58.3	58.3	35	30.8	1	4	338	0.00	30.165 
12:50	58.7	58.7	58.7	36	31.8	1	6	22	0.00	30.165 
12:55	59.0	59.0	59.0	34	30.7	2	4	0	0.00	30.165 
13:00	59.0	59.0	59.0	39	34.1	1	4	270	0.00	30.156 
13:05	59.0	59.0	59.0	34	30.7	1	3	90	0.00	30.156 
13:10	59.2	59.2	59.2	42	36.1	1	3	22	0.00	30.156 
13:15	59.8	59.8	59.8	43	37.3	1	5	0	0.00	30.158 
13:20	60.2	60.2	60.2	33	31.0	1	5	315	0.00	30.158 
13:25	59.9	59.9	59.9	32	30.0	1	3	338	0.00	30.158 
13:30	59.9	59.9	59.9	36	32.9	2	6	292	0.00	30.157 
13:35	59.9	59.9	59.9	37	33.6	2	5	292	0.00	30.157 
13:40	60.1	60.1	60.1	35	32.4	2	4	292	0.00	30.157 
13:45	60.4	60.4	60.4	40	36.0	1	5	315	0.00	30.160 
13:50	60.4	60.4	60.4	44	38.4	1	4	315	0.00	30.160 
13:55	60.5	60.5	60.5	38	34.8	1	3	338	0.00	30.160 
14:00	60.5	60.5	60.5	35	32.7	2	4	315	0.00	30.154 
14:05	60.2	60.2	60.2	32	30.2	3	12	270	0.00	30.154 
14:10	60.2	60.2	60.2	33	31.0	2	4	315	0.00	30.154 
14:15	60.5	60.5	60.5	36	33.4	1	6	292	0.00	30.158 
14:20	61.0	61.0	61.0	38	35.2	1	6	270	0.00	30.158 
14:25	61.2	61.2	61.2	33	31.9	1	4	338	0.00	30.158 
14:30	61.3	61.3	61.3	39	36.1	1	4	0	0.00	30.149 
14:35	61.8	61.8	61.8	34	33.1	2	6	270	0.00	30.149 
14:40	62.0	62.0	62.0	31	31.0	1	5	0	0.00	30.149 
14:45	62.1	62.1	62.1	34	33.4	1	4	45	0.00	30.140 
14:50	61.8	61.8	61.8	35	33.9	1	3	315	0.00	30.140 
14:55	61.8	61.8	61.8	31	30.8	1	3	292	0.00	30.140 
15:00	62.0	62.0	62.0	35	34.0	2	4	292	0.00	30.135 
15:05	62.0	62.0	62.0	35	34.0	1	2	338	0.00	30.135 
15:10	62.4	62.4	62.4	33	32.9	1	3	338	0.00	30.135 
15:15	62.6	62.6	62.6	37	36.0	1	6	315	0.00	30.133 
15:20	62.9	62.9	62.9	35	34.8	1	3	315	0.00	30.133 
15:25	62.7	62.7	62.7	32	32.4	1	9	315	0.00	30.133 
15:30	62.7	62.7	62.7	32	32.4	1	5	45	0.00	30.128 
15:35	62.4	62.4	62.4	34	33.7	2	5	338	0.00	30.128 
15:40	62.3	62.3	62.3	32	32.1	1	5	270	0.00	30.128 
15:45	62.9	62.9	62.9	34	34.1	1	4	315	0.00	30.124 
15:50	63.1	63.1	63.1	33	33.5	2	5	292	0.00	30.124 
15:55	62.7	62.7	62.7	30	30.8	1	5	45	0.00	30.124 
16:00	62.9	62.9	62.9	35	34.8	1	3	338	0.00	30.122 
16:05	63.1	63.1	63.1	28	29.5	1	6	0	0.00	30.122 
16:10	62.7	62.7	62.7	33	33.2	1	2	315	0.00	30.122 
16:15	62.9	62.9	62.9	32	32.6	2	7	68	0.00	30.113 
16:20	62.7	62.7	62.7	33	33.2	2	5	315	0.00	30.113 
16:25	62.7	62.7	62.7	29	30.0	1	3	315	0.00	30.113 
16:30	63.1	63.1	63.1	30	31.2	1	3	315	0.00	30.114 
16:35	63.5	63.5	63.5	30	31.5	1	2	315	0.00	30.114 
16:40	63.4	63.4	63.4	30	31.4	2	6	315	0.00	30.114 
16:45	63.2	63.2	63.2	30	31.3	1	3	315	0.00	30.109 
16:50	63.2	63.2	63.2	32	32.9	2	4	270	0.00	30.109 
16:55	63.5	63.5	63.5	31	32.3	1	4	0	0.00	30.109 
17:00	63.5	63.5	63.5	30	31.5	1	4	248	0.00	30.106 
17:05	63.5	63.5	63.5	28	29.8	1	3	292	0.00	30.106 
17:10	64.2	64.2	64.2	31	32.9	0	3	22	0.00	30.106 
17:15	64.3	64.3	64.3	28	30.5	1	3	292	0.00	30.097 
17:20	63.9	63.9	63.9	27	29.3	2	6	292	0.00	30.097 
17:25	63.7	63.7	63.7	29	30.8	1	4	270	0.00	30.097 
17:30	63.9	63.9	63.9	31	32.7	1	5	45	0.00	30.100 
17:35	63.7	63.7	63.7	27	29.1	1	3	45	0.00	30.100 
17:40	63.9	63.9	63.9	28	30.2	1	3	45	0.00	30.100 
17:45	63.5	63.5	63.5	28	29.8	1	3	68	0.00	30.094 
17:50	63.4	63.4	63.4	31	32.2	1	4	45	0.00	30.094 
17:55	63.2	63.2	63.2	28	29.6	0	2	68	0.00	30.094 
18:00	63.5	63.5	63.5	27	28.9	1	5	45	0.00	30.097 
18:05	63.4	63.4	63.4	30	31.4	1	3	315	0.00	30.097 
18:10	63.2	63.2	63.2	27	28.7	2	5	292	0.00	30.097 
18:15	63.1	63.1	63.1	27	28.6	1	3	292	0.00	30.093 
18:20	63.2	63.2	63.2	30	31.3	0	1	292	0.00	30.093 
18:25	63.1	63.1	63.1	29	30.3	0	2	315	0.00	30.093 
18:30	62.7	62.7	62.7	27	28.2	1	2	315	0.00	30.093 
18:35	62.9	62.9	62.9	27	28.4	1	3	270	0.00	30.093 
18:40	62.6	62.6	62.6	27	28.2	1	3	315	0.00	30.093 
18:45	62.6	62.6	62.6	28	29.0	1	5	315	0.00	30.092 
18:50	62.6	62.6	62.6	28	29.0	1	3	270	0.00	30.092 
18:55	62.6	62.6	62.6	28	29.0	1	3	292	0.00	30.092 
19:00	62.4	62.4	62.4	27	28.0	1	3	270	0.00	30.092 
19:05	62.3	62.3	62.3	29	29.6	0	3	22	0.00	30.092 
19:10	62.1	62.1	62.1	30	30.3	0	2	22	0.00	30.092 
19:15	62.0	62.0	62.0	30	30.2	0	1	22	0.00	30.087 
19:20	61.8	61.8	61.8	30	30.0	0	2	22	0.00	30.087 
19:25	61.8	61.8	61.8	31	30.8	1	3	0	0.00	30.087 
19:30	61.8	61.8	61.8	29	29.2	1	2	292	0.00	30.084 
19:35	61.8	61.8	61.8	32	31.6	0	2	292	0.00	30.084 
19:40	61.6	61.6	61.6	30	29.9	0	3	292	0.00	30.084 
19:45	61.3	61.3	61.3	32	31.2	0	2	315	0.00	30.080 
19:50	61.0	61.0	61.0	31	30.2	0	1	315	0.00	30.080 
19:55	60.9	60.9	60.9	32	30.8	0	1	315	0.00	30.080 
20:00	60.7	60.7	60.7	32	30.7	0	1	315	0.00	30.085 
20:05	60.5	60.5	60.5	31	29.7	0	0	---	0.00	30.085 
20:10	60.2	60.2	60.2	33	31.0	0	0	---	0.00	30.085 
20:15	60.1	60.1	60.1	31	29.4	0	1	315	0.00	30.079 
20:20	59.9	59.9	59.9	32	30.0	0	1	315	0.00	30.079 
20:25	59.8	59.8	59.8	33	30.6	0	0	---	0.00	30.079 
20:30	59.3	59.3	59.3	35	31.7	0	1	315	0.00	30.082 
20:35	59.0	59.0	59.0	33	29.9	0	2	315	0.00	30.082 
20:40	58.7	58.7	58.7	35	31.1	0	0	---	0.00	30.082 
20:45	58.3	58.3	58.3	36	31.5	0	2	315	0.00	30.088 
20:50	57.8	57.8	57.8	34	29.6	0	1	315	0.00	30.088 
20:55	57.5	57.5	57.5	36	30.8	0	0	---	0.00	30.088 
21:00	57.2	57.2	57.2	36	30.5	0	1	315	0.00	30.091 
21:05	56.7	56.7	56.7	37	30.7	0	0	---	0.00	30.091 
21:10	56.2	56.2	56.2	37	30.3	0	0	---	0.00	30.091 
21:15	55.7	55.7	55.7	38	30.5	0	0	---	0.00	30.094 
21:20	55.4	55.4	55.4	39	30.9	0	0	---	0.00	30.094 
21:25	55.0	55.0	55.0	39	30.5	0	0	---	0.00	30.094 
21:30	54.5	54.5	54.5	40	30.7	0	0	---	0.00	30.100 
21:35	54.1	54.1	54.1	41	30.9	0	0	---	0.00	30.100 
21:40	53.6	53.6	53.6	41	30.5	0	0	---	0.00	30.100 
21:45	53.2	53.2	53.2	42	30.7	0	0	---	0.00	30.105 
21:50	52.8	52.8	52.8	43	30.9	0	0	---	0.00	30.105 
21:55	52.3	52.3	52.3	44	31.0	0	0	---	0.00	30.105 
22:00	51.9	51.9	51.9	45	31.2	0	0	---	0.00	30.112 
22:05	51.6	51.6	51.6	45	31.0	0	0	---	0.00	30.112 
22:10	51.4	51.4	51.4	45	30.8	0	0	---	0.00	30.112 
22:15	51.1	51.1	51.1	45	30.5	0	0	---	0.00	30.118 
22:20	51.0	51.0	51.0	45	30.4	0	0	---	0.00	30.118 
22:25	50.7	50.7	50.7	46	30.7	0	0	---	0.00	30.118 
22:30	50.4	50.4	50.4	46	30.4	0	0	---	0.00	30.121 
22:35	50.1	50.1	50.1	47	30.7	0	0	---	0.00	30.121 
22:40	49.8	49.8	49.8	47	30.4	0	0	---	0.00	30.121 
22:45	49.6	49.6	49.6	49	31.2	0	0	---	0.00	30.130 
22:50	49.4	49.4	49.4	49	31.0	0	0	---	0.00	30.130 
22:55	49.2	49.2	49.2	49	30.9	0	0	---	0.00	30.130 
23:00	49.2	49.2	49.2	49	30.9	0	0	---	0.00	30.135 
23:05	49.2	49.2	49.2	49	30.9	0	0	---	0.00	30.135 
23:10	49.4	49.4	49.4	50	31.5	0	0	---	0.00	30.135 
23:15	49.4	49.4	49.4	50	31.5	0	0	---	0.00	30.133 
23:20	49.4	49.4	49.4	50	31.5	0	0	---	0.00	30.133 
23:25	49.4	49.4	49.4	50	31.5	0	0	---	0.00	30.133 
23:30	49.2	49.2	49.2	50	31.4	0	0	---	0.00	30.133 
23:35	48.9	48.9	48.9	51	31.6	0	0	---	0.00	30.133 
23:40	48.9	48.9	48.9	51	31.6	0	0	---	0.00	30.133 
23:45	48.8	48.8	48.8	51	31.5	0	0	---	0.00	30.131 
23:50	48.6	48.6	48.6	52	31.8	0	0	---	0.00	30.131 
23:55	48.5	48.5	48.5	52	31.7	0	0	---	0.00	30.131 

CoCoRaHS
IN-AL-39
A2 Web Hosting
Creative Commons License
GoDaddy
Look for:

loaded 2017-10-17 09:34:17 • last modified 2010-11-18 10:43:29
Privacy PolicyDisclaimer
• wx.awcolley.com is powered by PmWiki v.2002016 •
• all content (unless otherwise noted) © 2017 A W Colley